Time;durP1;ratioP1;P1;durP2;ratioP2;P2;SDS_P1;SDS_P2;PMS_P1;PMS_P2;Temp;Humidity;BMP_temperature;BMP_pressure;BME280_temperature;BME280_humidity;BME280_pressure;Samples;Min_cycle;Max_cycle;Signal;HPM_P1;HPM_P2
2021/12/16 00:02:23;;;;;;;14.20;11.07;;;6.50;99.90;;;;;;5023275;28;20190;-87
2021/12/16 00:07:28;;;;;;;14.05;12.13;;;6.50;99.90;;;;;;5044618;28;20245;-87
2021/12/16 00:31:52;;;;;;;14.10;12.00;;;6.60;99.90;;;;;;5045311;28;20204;-86
2021/12/16 00:34:24;;;;;;;15.23;12.00;;;6.50;99.90;;;;;;5045568;28;20189;-86
2021/12/16 00:36:51;;;;;;;12.43;10.07;;;6.50;99.90;;;;;;5044494;28;20192;-86
2021/12/16 00:39:24;;;;;;;12.07;10.23;;;6.50;99.90;;;;;;5042910;28;20224;-86
2021/12/16 00:41:57;;;;;;;16.55;11.90;;;6.60;99.90;;;;;;5042653;28;20205;-87
2021/12/16 00:54:50;;;;;;;11.38;10.15;;;6.60;99.90;;;;;;5045392;28;20226;-86
2021/12/16 00:57:17;;;;;;;14.27;11.48;;;6.70;99.90;;;;;;5027865;28;20197;-86
2021/12/16 00:59:45;;;;;;;14.13;11.18;;;6.70;99.90;;;;;;5044525;28;20205;-86
2021/12/16 01:05:54;;;;;;;16.00;10.90;;;6.60;99.90;;;;;;5047272;28;20225;-86
2021/12/16 01:35:45;;;;;;;17.63;12.20;;;6.70;99.90;;;;;;5048917;28;20186;-87
2021/12/16 01:57:26;;;;;;;17.60;12.65;;;6.60;99.90;;;;;;5046819;28;20232;-85
2021/12/16 02:00:06;;;;;;;16.02;12.32;;;6.60;99.90;;;;;;5046253;28;20197;-88
2021/12/16 02:02:46;;;;;;;24.55;16.52;;;6.70;99.90;;;;;;5032121;28;20197;-85
2021/12/16 02:05:27;;;;;;;15.27;11.85;;;6.60;99.90;;;;;;5031080;28;20224;-86
2021/12/16 02:10:37;;;;;;;12.80;9.93;;;6.60;99.90;;;;;;5048370;28;20177;-86
2021/12/16 02:31:58;;;;;;;12.13;9.57;;;6.60;99.90;;;;;;5047498;28;20219;-85
2021/12/16 02:34:55;;;;;;;11.13;9.45;;;6.60;99.90;;;;;;5045791;28;20288;-86
2021/12/16 02:37:20;;;;;;;12.77;9.90;;;6.60;99.90;;;;;;5047129;28;20201;-86
2021/12/16 02:39:51;;;;;;;10.10;8.68;;;6.60;99.90;;;;;;5029775;28;20676;-85
2021/12/16 02:42:21;;;;;;;11.68;10.20;;;6.60;99.90;;;;;;5029966;28;20204;-85
2021/12/16 02:50:26;;;;;;;14.98;10.60;;;6.50;99.90;;;;;;5047407;28;20185;-86
2021/12/16 02:52:53;;;;;;;15.82;10.48;;;6.50;99.90;;;;;;5029553;28;20213;-86
2021/12/16 02:55:21;;;;;;;14.10;10.68;;;6.50;99.90;;;;;;5046109;28;20211;-86
2021/12/16 02:57:58;;;;;;;13.00;10.93;;;6.50;99.90;;;;;;5047187;28;20197;-86
2021/12/16 03:00:32;;;;;;;13.35;11.00;;;6.50;99.90;;;;;;5046568;28;20186;-86
2021/12/16 03:02:59;;;;;;;12.30;10.95;;;6.50;99.90;;;;;;5048185;28;20225;-85
2021/12/16 03:05:25;;;;;;;16.38;11.95;;;6.50;99.90;;;;;;5047300;28;20296;-86
2021/12/16 03:07:52;;;;;;;15.45;12.57;;;6.40;99.90;;;;;;5047623;28;20207;-86
2021/12/16 03:10:58;;;;;;;16.58;13.05;;;6.40;99.90;;;;;;5046630;28;20201;-86
2021/12/16 03:13:33;;;;;;;16.10;11.85;;;6.40;99.90;;;;;;5047310;28;20235;-85
2021/12/16 03:16:11;;;;;;;14.40;11.70;;;6.50;99.90;;;;;;5027773;28;20205;-86
2021/12/16 03:19:02;;;;;;;18.38;13.35;;;6.40;99.90;;;;;;5027768;28;20197;-86
2021/12/16 03:21:35;;;;;;;15.70;12.57;;;6.40;99.90;;;;;;5027863;28;20197;-85
2021/12/16 03:37:18;;;;;;;14.80;12.30;;;6.40;99.90;;;;;;5045025;28;20197;-85
2021/12/16 03:39:56;;;;;;;17.27;12.73;;;6.40;99.90;;;;;;5046177;28;20169;-86
2021/12/16 03:42:33;;;;;;;17.23;13.30;;;6.40;99.90;;;;;;5045590;28;20188;-86
2021/12/16 03:45:08;;;;;;;16.35;12.85;;;6.40;99.90;;;;;;5027927;28;20217;-86
2021/12/16 03:47:47;;;;;;;19.25;14.27;;;6.50;99.90;;;;;;5027651;28;20239;-86
2021/12/16 03:50:18;;;;;;;18.95;13.80;;;6.40;99.90;;;;;;5026734;28;20204;-86
2021/12/16 03:52:46;;;;;;;23.17;14.13;;;6.40;99.90;;;;;;5045434;28;20297;-85
2021/12/16 03:55:14;;;;;;;20.42;15.15;;;6.40;99.90;;;;;;5027023;28;20209;-86
2021/12/16 03:57:43;;;;;;;19.70;16.13;;;6.40;99.90;;;;;;5028824;28;20239;-86
2021/12/16 04:00:19;;;;;;;16.63;13.32;;;6.40;99.90;;;;;;5045758;28;20197;-85
2021/12/16 04:02:46;;;;;;;14.95;11.80;;;6.40;99.90;;;;;;5044063;28;20280;-85
2021/12/16 04:05:14;;;;;;;19.58;15.68;;;6.30;99.90;;;;;;5045240;28;20292;-85
2021/12/16 04:07:42;;;;;;;16.75;13.05;;;6.40;99.90;;;;;;5046320;28;20201;-85
2021/12/16 04:10:14;;;;;;;15.18;12.43;;;6.30;99.90;;;;;;5046850;28;20205;-84
2021/12/16 04:12:40;;;;;;;15.30;12.20;;;6.30;99.90;;;;;;5028279;28;20288;-85
2021/12/16 04:15:09;;;;;;;17.20;11.65;;;6.30;99.90;;;;;;5027741;28;20201;-86
2021/12/16 04:17:37;;;;;;;14.52;11.23;;;6.30;99.90;;;;;;5027902;28;20252;-86
2021/12/16 04:20:09;;;;;;;16.48;10.95;;;6.30;99.90;;;;;;5028535;28;20214;-86
2021/12/16 04:22:42;;;;;;;15.55;13.20;;;6.30;99.90;;;;;;5028341;28;20209;-85
2021/12/16 04:25:14;;;;;;;14.07;12.07;;;6.30;99.90;;;;;;5026362;28;20701;-85
2021/12/16 04:28:13;;;;;;;16.10;11.73;;;6.20;99.90;;;;;;5044002;28;20194;-85
2021/12/16 04:30:40;;;;;;;20.75;13.48;;;6.20;99.90;;;;;;5028513;28;20193;-85
2021/12/16 04:33:09;;;;;;;17.17;13.40;;;6.20;99.90;;;;;;5045186;28;20268;-84
2021/12/16 04:35:36;;;;;;;18.63;12.10;;;6.20;99.90;;;;;;5044705;28;20284;-86
2021/12/16 04:38:05;;;;;;;17.33;12.90;;;6.20;99.90;;;;;;5028491;28;20201;-85
2021/12/16 04:40:35;;;;;;;16.67;13.50;;;6.20;99.90;;;;;;5049069;28;20201;-85
2021/12/16 04:43:04;;;;;;;30.30;14.18;;;6.10;99.90;;;;;;5048729;28;20201;-85
2021/12/16 04:45:35;;;;;;;18.52;13.32;;;6.10;99.90;;;;;;5048303;28;20224;-86
2021/12/16 04:48:04;;;;;;;21.27;14.98;;;6.20;99.90;;;;;;5031881;28;20197;-86
2021/12/16 04:50:34;;;;;;;17.70;13.85;;;6.10;99.90;;;;;;5050105;28;20204;-87
2021/12/16 04:53:00;;;;;;;20.10;14.32;;;6.20;99.90;;;;;;5048363;28;20206;-86
2021/12/16 04:55:27;;;;;;;16.60;13.07;;;6.20;99.90;;;;;;5050098;28;20659;-87
2021/12/16 04:57:53;;;;;;;19.98;14.85;;;6.10;99.90;;;;;;5048797;28;20233;-86
2021/12/16 05:00:22;;;;;;;22.23;15.68;;;6.10;99.90;;;;;;5031421;28;20208;-86
2021/12/16 05:02:50;;;;;;;20.00;15.10;;;6.10;99.90;;;;;;5031408;28;20225;-86
2021/12/16 05:05:17;;;;;;;24.70;17.10;;;6.10;99.90;;;;;;5047900;28;20235;-85
2021/12/16 05:07:47;;;;;;;17.88;13.88;;;6.10;99.90;;;;;;5049010;28;20245;-85
2021/12/16 05:10:15;;;;;;;20.30;14.63;;;6.10;99.90;;;;;;5029792;28;20232;-86
2021/12/16 05:12:53;;;;;;;21.60;14.93;;;6.10;99.90;;;;;;5050026;28;20257;-86
2021/12/16 05:15:28;;;;;;;25.73;16.63;;;6.10;99.90;;;;;;5031327;28;20204;-86
2021/12/16 05:17:56;;;;;;;22.48;16.67;;;6.10;99.90;;;;;;5050224;28;20188;-86
2021/12/16 05:20:30;;;;;;;24.80;17.50;;;6.10;99.90;;;;;;5049210;28;20216;-86
2021/12/16 05:28:29;;;;;;;48.38;28.77;;;6.10;99.90;;;;;;5033839;28;20552;-85
2021/12/16 05:30:56;;;;;;;28.52;19.83;;;6.10;99.90;;;;;;5048529;28;20181;-85
2021/12/16 05:33:23;;;;;;;25.48;17.58;;;6.10;99.90;;;;;;5048818;28;20257;-86
2021/12/16 05:35:52;;;;;;;33.28;18.33;;;6.00;99.90;;;;;;5048904;28;20280;-85
2021/12/16 05:38:18;;;;;;;24.33;18.77;;;6.00;99.90;;;;;;5048014;28;20256;-86
2021/12/16 05:40:46;;;;;;;25.00;18.80;;;6.00;99.90;;;;;;5030399;28;20210;-86
2021/12/16 05:43:15;;;;;;;26.45;19.80;;;6.00;99.90;;;;;;5031644;28;20209;-86
2021/12/16 05:45:42;;;;;;;24.20;16.75;;;6.10;99.90;;;;;;5029250;28;20688;-86
2021/12/16 05:48:12;;;;;;;32.67;19.23;;;6.10;99.90;;;;;;5047645;28;20205;-86
2021/12/16 05:50:42;;;;;;;24.23;18.73;;;6.00;99.90;;;;;;5029097;28;20265;-86
2021/12/16 05:53:10;;;;;;;26.75;18.70;;;6.00;99.90;;;;;;5048129;28;20672;-86
2021/12/16 05:55:38;;;;;;;26.77;18.08;;;6.00;99.90;;;;;;5048791;28;20671;-86
2021/12/16 05:58:07;;;;;;;30.23;19.30;;;6.10;99.90;;;;;;5029897;28;20212;-86
2021/12/16 06:00:39;;;;;;;29.17;19.73;;;6.10;99.90;;;;;;5029992;28;20198;-86
2021/12/16 06:03:06;;;;;;;27.30;18.20;;;6.10;99.90;;;;;;5045210;28;20296;-85
2021/12/16 06:05:32;;;;;;;23.35;18.38;;;6.10;99.90;;;;;;5046572;28;20312;-86
2021/12/16 06:07:59;;;;;;;24.67;17.80;;;6.00;99.90;;;;;;5044332;28;20209;-86
2021/12/16 06:11:29;;;;;;;22.20;16.00;;;6.10;99.90;;;;;;5044751;28;20193;-85
2021/12/16 06:13:26;;;;;;;23.15;17.58;;;6.10;99.90;;;;;;5018175;28;20205;-86
2021/12/16 06:27:16;;;;;;;26.02;17.35;;;5.90;99.90;;;;;;5047663;28;20212;-86
2021/12/16 06:29:36;;;;;;;23.83;17.50;;;5.90;99.90;;;;;;5043374;28;20314;-85
2021/12/16 06:32:03;;;;;;;27.90;18.90;;;5.90;99.90;;;;;;5046740;28;20240;-86
2021/12/16 06:34:30;;;;;;;29.85;21.17;;;5.90;99.90;;;;;;5029596;28;20208;-85
2021/12/16 06:36:58;;;;;;;22.52;17.88;;;6.00;99.90;;;;;;5047612;28;20220;-87
2021/12/16 06:39:41;;;;;;;25.15;17.35;;;6.10;99.90;;;;;;5047025;28;20216;-87
2021/12/16 06:42:29;;;;;;;26.80;16.85;;;6.00;99.90;;;;;;5045700;28;20209;-87
2021/12/16 06:45:09;;;;;;;29.13;18.25;;;6.00;99.90;;;;;;5046554;28;20205;-87
2021/12/16 06:47:45;;;;;;;29.88;19.48;;;6.00;99.90;;;;;;5029474;28;20208;-86
2021/12/16 06:50:23;;;;;;;31.50;16.75;;;6.10;99.90;;;;;;5046556;28;20659;-87
2021/12/16 06:52:50;;;;;;;25.08;16.92;;;6.10;99.90;;;;;;5046867;28;20211;-86
2021/12/16 06:55:25;;;;;;;24.70;17.40;;;6.00;99.90;;;;;;5028302;28;20239;-86
2021/12/16 06:57:55;;;;;;;24.45;16.60;;;6.00;99.90;;;;;;5027886;28;20256;-86
2021/12/16 07:00:40;;;;;;;22.13;17.92;;;5.90;99.90;;;;;;5028320;28;20197;-87
2021/12/16 07:03:17;;;;;;;21.08;15.50;;;5.90;99.90;;;;;;5028803;28;20224;-86
2021/12/16 07:05:45;;;;;;;20.20;14.40;;;5.90;99.90;;;;;;5045771;28;20229;-86
2021/12/16 07:08:15;;;;;;;26.00;15.85;;;5.90;99.90;;;;;;5027726;28;20653;-86
2021/12/16 07:10:45;;;;;;;19.90;14.68;;;6.00;99.90;;;;;;5044131;28;20208;-87
2021/12/16 07:13:29;;;;;;;23.63;13.90;;;5.90;99.90;;;;;;5027396;28;20715;-87
2021/12/16 07:15:57;;;;;;;21.48;15.55;;;5.80;99.90;;;;;;5027228;28;20209;-87
2021/12/16 07:18:24;;;;;;;23.27;14.63;;;5.80;99.90;;;;;;5044849;28;20205;-87
2021/12/16 07:20:51;;;;;;;19.77;13.35;;;5.80;99.90;;;;;;5027158;28;20205;-87
2021/12/16 07:23:17;;;;;;;19.38;15.20;;;5.80;99.90;;;;;;5027168;28;20205;-87
2021/12/16 07:25:43;;;;;;;22.63;15.13;;;5.90;99.90;;;;;;5025938;28;20277;-87
2021/12/16 07:28:11;;;;;;;20.45;14.65;;;5.80;99.90;;;;;;5024288;28;20347;-89
2021/12/16 07:30:40;;;;;;;30.85;15.32;;;5.80;99.90;;;;;;5043534;28;20227;-87
2021/12/16 07:33:08;;;;;;;20.25;14.82;;;5.80;99.90;;;;;;5045138;28;20256;-88
2021/12/16 07:35:36;;;;;;;19.30;13.93;;;5.80;99.90;;;;;;5046517;28;20265;-87
2021/12/16 07:38:03;;;;;;;19.58;14.00;;;5.80;99.90;;;;;;5046701;28;20235;-87
2021/12/16 07:40:30;;;;;;;19.77;14.20;;;5.70;99.90;;;;;;5029134;28;20205;-87
2021/12/16 07:45:42;;;;;;;21.17;14.93;;;5.80;99.90;;;;;;5047057;28;20250;-88
2021/12/16 07:48:11;;;;;;;20.35;15.32;;;5.80;99.90;;;;;;5027756;28;20203;-87
2021/12/16 07:50:38;;;;;;;19.55;13.98;;;5.80;99.90;;;;;;5045759;28;20185;-88
2021/12/16 07:53:08;;;;;;;19.95;14.10;;;5.80;99.90;;;;;;5028000;28;20212;-88
2021/12/16 07:55:35;;;;;;;22.27;15.50;;;5.80;99.90;;;;;;5011399;28;20201;-87
2021/12/16 07:58:03;;;;;;;20.83;14.77;;;5.90;99.90;;;;;;5045559;28;20201;-86
2021/12/16 08:00:33;;;;;;;21.92;15.35;;;5.90;99.90;;;;;;5045765;28;20201;-86
2021/12/16 08:03:05;;;;;;;16.48;14.00;;;6.00;99.90;;;;;;5027984;28;20648;-87
2021/12/16 08:05:37;;;;;;;21.45;15.38;;;6.00;99.90;;;;;;5029625;28;20235;-87
2021/12/16 08:08:04;;;;;;;19.20;14.18;;;6.00;99.90;;;;;;5028583;28;20336;-87
2021/12/16 08:10:31;;;;;;;20.50;15.20;;;6.10;99.90;;;;;;5012560;28;20204;-88
2021/12/16 08:12:58;;;;;;;22.08;14.82;;;6.00;99.90;;;;;;5045800;28;20203;-88
2021/12/16 08:15:24;;;;;;;18.90;13.85;;;6.00;99.90;;;;;;5028073;28;20209;-87
2021/12/16 08:17:51;;;;;;;19.67;14.50;;;6.00;99.90;;;;;;5028923;28;20198;-88
2021/12/16 08:20:18;;;;;;;17.92;14.15;;;6.10;99.90;;;;;;5047012;28;20247;-87
2021/12/16 08:22:48;;;;;;;21.75;14.57;;;6.10;99.90;;;;;;5029404;28;20205;-87
2021/12/16 08:25:18;;;;;;;20.05;15.43;;;6.10;99.90;;;;;;5029300;28;20209;-87
2021/12/16 08:27:45;;;;;;;22.85;14.57;;;6.10;99.90;;;;;;5029637;28;20197;-88
2021/12/16 08:30:14;;;;;;;20.05;13.98;;;6.10;99.90;;;;;;5044984;28;20205;-88
2021/12/16 08:32:41;;;;;;;25.63;14.30;;;6.20;99.90;;;;;;5028640;28;20205;-88
2021/12/16 08:35:08;;;;;;;24.95;16.42;;;6.20;99.90;;;;;;5028073;28;20256;-88
2021/12/16 08:37:36;;;;;;;16.73;13.77;;;6.10;99.90;;;;;;5045837;28;20244;-88
2021/12/16 08:40:05;;;;;;;21.80;15.70;;;6.10;99.90;;;;;;5044809;28;20212;-88
2021/12/16 08:42:32;;;;;;;21.75;14.52;;;6.10;99.90;;;;;;5027261;28;20653;-88
2021/12/16 08:44:58;;;;;;;21.55;15.23;;;6.10;99.90;;;;;;5009468;28;20201;-88
2021/12/16 08:47:25;;;;;;;22.02;15.90;;;6.10;99.90;;;;;;5027437;28;20565;-87
2021/12/16 08:49:52;;;;;;;21.88;15.25;;;6.10;99.90;;;;;;5044959;28;20208;-87
2021/12/16 08:52:21;;;;;;;19.25;14.50;;;6.20;99.90;;;;;;5027394;28;20201;-88
2021/12/16 08:54:49;;;;;;;21.10;14.50;;;6.30;99.90;;;;;;5044620;28;20219;-88
2021/12/16 08:57:16;;;;;;;18.25;13.48;;;6.30;99.90;;;;;;5044981;28;20607;-87
2021/12/16 08:59:43;;;;;;;16.48;13.55;;;6.40;99.90;;;;;;5027393;28;20546;-88
2021/12/16 09:02:11;;;;;;;25.35;15.70;;;6.40;99.90;;;;;;5026448;28;20209;-88
2021/12/16 09:04:38;;;;;;;21.58;15.25;;;6.50;99.90;;;;;;5043435;28;20276;-88
2021/12/16 09:07:11;;;;;;;22.10;15.98;;;6.40;99.90;;;;;;5025645;28;20680;-88
2021/12/16 09:09:39;;;;;;;21.15;15.27;;;6.30;99.90;;;;;;5043720;28;20268;-87
2021/12/16 09:15:08;;;;;;;23.35;16.60;;;6.40;99.90;;;;;;5045065;28;20245;-87
2021/12/16 09:17:35;;;;;;;24.58;16.98;;;6.30;99.90;;;;;;5027974;28;20182;-87
2021/12/16 09:20:03;;;;;;;24.50;16.73;;;6.30;99.90;;;;;;5045861;28;20197;-88
2021/12/16 09:22:30;;;;;;;21.67;16.27;;;6.30;99.90;;;;;;5044908;28;20209;-88
2021/12/16 09:24:57;;;;;;;27.52;17.15;;;6.40;99.90;;;;;;5030575;28;20194;-87
2021/12/16 09:27:24;;;;;;;21.17;15.07;;;6.40;99.90;;;;;;5048253;28;20308;-88
2021/12/16 09:29:51;;;;;;;19.83;15.02;;;6.50;99.90;;;;;;5047956;28;20181;-88
2021/12/16 09:32:18;;;;;;;21.75;15.38;;;6.50;99.90;;;;;;5049138;28;20188;-87
2021/12/16 09:34:45;;;;;;;17.83;14.25;;;6.50;99.90;;;;;;5048031;28;20188;-88
2021/12/16 09:37:12;;;;;;;23.80;16.17;;;6.60;99.90;;;;;;5048676;28;20269;-87
2021/12/16 09:39:39;;;;;;;21.33;15.55;;;6.70;99.90;;;;;;5029743;28;20201;-87
2021/12/16 09:42:09;;;;;;;22.35;15.93;;;6.70;99.90;;;;;;5048150;28;20618;-88
2021/12/16 09:44:38;;;;;;;24.95;16.23;;;6.70;99.90;;;;;;5029342;28;20214;-88
2021/12/16 09:47:07;;;;;;;25.40;16.00;;;6.70;99.90;;;;;;5047625;28;20640;-87
2021/12/16 09:49:35;;;;;;;22.67;15.48;;;6.80;99.90;;;;;;5046080;28;20201;-87
2021/12/16 09:52:05;;;;;;;19.50;14.75;;;6.70;99.90;;;;;;5028548;28;20193;-88
2021/12/16 09:54:33;;;;;;;23.45;16.17;;;6.70;99.90;;;;;;5046893;28;20212;-87
2021/12/16 09:57:00;;;;;;;23.05;16.58;;;6.80;99.90;;;;;;5046979;28;20205;-86
2021/12/16 09:59:29;;;;;;;21.45;16.63;;;6.90;99.90;;;;;;5047921;28;20212;-86
2021/12/16 10:01:59;;;;;;;26.25;18.67;;;7.00;99.90;;;;;;5047286;28;20208;-87
2021/12/16 10:04:31;;;;;;;26.33;17.15;;;7.00;99.90;;;;;;5047015;28;20225;-87
2021/12/16 10:07:03;;;;;;;28.17;17.52;;;6.90;99.90;;;;;;5044566;28;20684;-88
2021/12/16 10:09:30;;;;;;;44.22;28.35;;;6.90;99.90;;;;;;5046869;28;20628;-87
2021/12/16 10:12:01;;;;;;;37.65;21.55;;;6.90;99.90;;;;;;5047867;28;20197;-87
2021/12/16 10:19:41;;;;;;;21.70;16.65;;;6.90;99.90;;;;;;5046677;28;20186;-87
2021/12/16 10:22:19;;;;;;;24.98;17.73;;;6.90;99.90;;;;;;5028961;28;20276;-87
2021/12/16 10:24:48;;;;;;;23.08;17.00;;;7.00;99.90;;;;;;5046651;28;20186;-88
2021/12/16 10:27:22;;;;;;;27.58;17.70;;;7.10;99.90;;;;;;5030222;28;20221;-88
2021/12/16 10:30:04;;;;;;;23.60;17.10;;;7.20;99.90;;;;;;5030611;28;20296;-88
2021/12/16 10:32:37;;;;;;;20.75;14.80;;;7.40;99.90;;;;;;5047106;28;20684;-88
2021/12/16 10:35:28;;;;;;;23.00;17.55;;;7.20;99.90;;;;;;5028280;28;20652;-88
2021/12/16 10:38:05;;;;;;;21.13;15.90;;;7.30;99.90;;;;;;5029252;28;20292;-87
2021/12/16 10:40:33;;;;;;;21.77;16.10;;;7.30;99.90;;;;;;5030484;28;20205;-87
2021/12/16 10:43:26;;;;;;;31.52;18.45;;;7.30;99.90;;;;;;5030263;28;20206;-87
2021/12/16 10:46:04;;;;;;;21.30;15.82;;;7.20;99.90;;;;;;5039843;28;20216;-87
2021/12/16 10:48:36;;;;;;;23.88;14.07;;;7.50;99.90;;;;;;5047286;28;20663;-87
2021/12/16 10:51:31;;;;;;;19.55;15.40;;;7.40;99.90;;;;;;5047013;28;20228;-87
2021/12/16 10:54:11;;;;;;;21.40;15.10;;;7.50;99.90;;;;;;5030963;28;20687;-86
2021/12/16 10:56:40;;;;;;;19.05;13.73;;;7.60;99.90;;;;;;5030309;28;20644;-86
2021/12/16 10:59:37;;;;;;;21.23;15.15;;;7.50;99.90;;;;;;5030873;28;20556;-84
2021/12/16 11:02:24;;;;;;;20.70;14.55;;;7.90;99.90;;;;;;5030479;28;20216;-86
2021/12/16 11:04:59;;;;;;;60.40;30.58;;;7.50;99.90;;;;;;5030597;28;20232;-86
2021/12/16 11:07:34;;;;;;;36.70;21.63;;;7.70;99.90;;;;;;5030741;28;20242;-86
2021/12/16 11:10:10;;;;;;;22.20;16.15;;;8.00;99.90;;;;;;5030504;28;20197;-86
2021/12/16 11:12:42;;;;;;;18.05;15.88;;;8.00;99.90;;;;;;5030371;28;20203;-87
2021/12/16 11:15:10;;;;;;;17.38;15.02;;;7.90;99.90;;;;;;5029569;28;20205;-86
2021/12/16 11:17:45;;;;;;;15.35;12.63;;;8.00;99.90;;;;;;5029602;28;20260;-87
2021/12/16 11:20:24;;;;;;;19.70;14.00;;;8.40;99.90;;;;;;5046676;28;20193;-87
2021/12/16 11:22:59;;;;;;;21.38;15.18;;;8.20;99.90;;;;;;5048328;28;20244;-86
2021/12/16 11:25:34;;;;;;;17.77;14.27;;;8.20;99.90;;;;;;5029541;28;20184;-87
2021/12/16 11:28:13;;;;;;;24.17;15.60;;;8.00;99.90;;;;;;5029337;28;20307;-87
2021/12/16 11:30:50;;;;;;;19.83;15.13;;;8.30;99.90;;;;;;5046239;28;20273;-86
2021/12/16 11:33:21;;;;;;;19.55;14.88;;;8.30;99.90;;;;;;5028169;28;20209;-88
2021/12/16 11:35:56;;;;;;;19.42;15.02;;;8.20;99.90;;;;;;5028363;28;20208;-88
2021/12/16 11:38:33;;;;;;;22.48;17.10;;;8.20;99.90;;;;;;5028566;28;20192;-87
2021/12/16 11:41:19;;;;;;;21.23;14.48;;;8.50;99.90;;;;;;5045033;28;20208;-87
2021/12/16 11:43:58;;;;;;;18.88;14.35;;;8.70;99.90;;;;;;5045084;28;20201;-87
2021/12/16 11:46:57;;;;;;;19.25;13.85;;;8.80;99.90;;;;;;5044911;28;20319;-87
2021/12/16 11:49:49;;;;;;;18.95;13.45;;;9.00;99.90;;;;;;5026962;28;20207;-87
2021/12/16 11:52:40;;;;;;;18.13;13.88;;;9.20;99.90;;;;;;5043243;28;20539;-87
2021/12/16 11:55:18;;;;;;;20.77;14.85;;;9.70;99.90;;;;;;5043466;28;20208;-88
2021/12/16 11:57:51;;;;;;;19.35;15.90;;;9.60;99.90;;;;;;5026248;28;20617;-87
2021/12/16 12:00:33;;;;;;;20.17;15.40;;;9.60;99.90;;;;;;5040495;28;20873;-87
2021/12/16 12:03:07;;;;;;;18.60;14.60;;;10.00;99.90;;;;;;5042350;28;20636;-88
2021/12/16 12:05:40;;;;;;;15.53;13.60;;;10.20;99.90;;;;;;5024442;28;20706;-88
2021/12/16 12:08:16;;;;;;;20.50;13.10;;;10.70;99.90;;;;;;5045004;28;20647;-87
2021/12/16 12:10:50;;;;;;;21.10;14.90;;;11.10;99.90;;;;;;5043054;28;21189;-88
2021/12/16 12:13:28;;;;;;;19.13;15.57;;;11.40;99.90;;;;;;5029154;28;20687;-87
2021/12/16 12:15:56;;;;;;;15.40;13.27;;;11.70;99.90;;;;;;5048554;28;20607;-86
2021/12/16 12:18:43;;;;;;;18.53;12.67;;;11.40;99.90;;;;;;5049974;28;20604;-87
2021/12/16 12:21:42;;;;;;;15.80;13.10;;;11.10;99.90;;;;;;5028938;28;20662;-88
2021/12/16 12:24:26;;;;;;;17.07;13.80;;;10.90;99.90;;;;;;5045093;28;20661;-87
2021/12/16 12:27:09;;;;;;;17.10;13.60;;;10.40;99.90;;;;;;5012669;28;20825;-87
2021/12/16 12:29:42;;;;;;;16.20;12.90;;;10.00;99.90;;;;;;5047372;28;20602;-87
2021/12/16 12:32:43;;;;;;;20.00;14.10;;;9.70;99.90;;;;;;5047395;28;20619;-86
2021/12/16 12:35:14;;;;;;;21.53;14.00;;;9.80;99.90;;;;;;5018029;28;20659;-87
2021/12/16 12:37:46;;;;;;;16.67;13.80;;;9.70;99.90;;;;;;5046856;28;20671;-87
2021/12/16 12:40:15;;;;;;;15.65;13.52;;;9.80;99.90;;;;;;5030271;28;20616;-87
2021/12/16 12:42:44;;;;;;;16.90;14.35;;;9.60;99.90;;;;;;5031500;28;20211;-86
2021/12/16 12:45:14;;;;;;;16.98;14.32;;;9.80;99.90;;;;;;5030407;28;20236;-87
2021/12/16 12:47:44;;;;;;;17.23;14.30;;;10.10;99.90;;;;;;5046019;28;20292;-87
2021/12/16 12:50:33;;;;;;;18.67;14.27;;;10.10;99.90;;;;;;5047497;28;20241;-86
2021/12/16 12:53:29;;;;;;;17.58;13.80;;;10.20;99.90;;;;;;5045113;28;20235;-88
2021/12/16 12:56:12;;;;;;;18.70;14.75;;;10.50;99.90;;;;;;5047811;28;20200;-86
2021/12/16 12:58:58;;;;;;;29.13;15.70;;;10.90;99.90;;;;;;5048284;28;20196;-86
2021/12/16 13:01:51;;;;;;;17.03;12.87;;;11.50;99.90;;;;;;5051397;28;20595;-87
2021/12/16 13:04:34;;;;;;;17.30;13.20;;;11.90;99.90;;;;;;5050792;28;20622;-87
2021/12/16 13:07:06;;;;;;;15.77;13.27;;;11.50;99.90;;;;;;5032724;28;21030;-86
2021/12/16 13:09:38;;;;;;;16.03;13.93;;;10.80;99.90;;;;;;5033601;28;20591;-86
2021/12/16 13:12:34;;;;;;;18.30;15.13;;;10.20;99.90;;;;;;5050757;28;20628;-87
2021/12/16 13:15:20;;;;;;;18.40;14.87;;;10.00;99.90;;;;;;5050726;28;20639;-86
2021/12/16 13:27:21;;;;;;;25.65;15.55;;;9.20;99.90;;;;;;4997030;28;20282;-87
2021/12/16 13:30:50;;;;;;;25.90;16.90;;;9.10;99.90;;;;;;5034333;28;20236;-87
2021/12/16 13:32:45;;;;;;;30.52;17.50;;;9.10;99.90;;;;;;5039199;28;20704;-85
2021/12/16 13:35:33;;;;;;;25.95;18.33;;;9.10;99.90;;;;;;5033942;28;20189;-87
2021/12/16 13:38:07;;;;;;;21.00;13.90;;;9.10;99.90;;;;;;5050033;28;20221;-87
2021/12/16 13:40:40;;;;;;;23.98;15.63;;;9.10;99.90;;;;;;5050284;28;20185;-87
2021/12/16 13:43:20;;;;;;;25.17;16.15;;;9.10;99.90;;;;;;5033895;28;20204;-87
2021/12/16 13:46:08;;;;;;;19.98;14.32;;;9.10;99.90;;;;;;5049628;28;20189;-87
2021/12/16 13:49:00;;;;;;;19.95;13.40;;;9.10;99.90;;;;;;5048223;28;20225;-86
2021/12/16 14:03:53;;;;;;;24.92;15.63;;;8.60;99.90;;;;;;5049843;28;20239;-87
2021/12/16 14:06:52;;;;;;;31.50;15.50;;;8.60;99.90;;;;;;5031621;28;20272;-87
2021/12/16 14:09:24;;;;;;;18.05;13.43;;;8.60;99.90;;;;;;5033178;28;20686;-86
2021/12/16 14:15:39;;;;;;;22.30;15.13;;;8.50;99.90;;;;;;5051691;28;20288;-86
2021/12/16 14:23:16;;;;;;;23.40;15.13;;;9.10;99.90;;;;;;5049289;28;20186;-87
2021/12/16 14:33:08;;;;;;;19.13;12.20;;;9.60;99.90;;;;;;5049015;28;20205;-86
2021/12/16 14:37:20;;;;;;;22.75;13.82;;;9.30;99.90;;;;;;5031251;28;20227;-89
2021/12/16 14:40:17;;;;;;;23.17;14.23;;;9.20;99.90;;;;;;5047754;28;20193;-88
2021/12/16 14:43:16;;;;;;;19.33;13.15;;;9.20;99.90;;;;;;5030811;28;20248;-87
2021/12/16 14:45:56;;;;;;;27.20;14.73;;;9.20;99.90;;;;;;5051057;28;20196;-88
2021/12/16 14:48:31;;;;;;;34.58;17.20;;;9.00;99.90;;;;;;5034044;28;20217;-88
2021/12/16 14:51:15;;;;;;;23.67;15.07;;;8.90;99.90;;;;;;5030187;28;20184;-87
2021/12/16 14:53:52;;;;;;;29.30;13.73;;;8.70;99.90;;;;;;5049879;28;20228;-87
2021/12/16 14:56:37;;;;;;;22.58;14.25;;;8.60;99.90;;;;;;5048627;28;20521;-87
2021/12/16 14:59:09;;;;;;;37.10;16.83;;;8.60;99.90;;;;;;5031089;28;20220;-88
2021/12/16 15:01:39;;;;;;;20.60;13.40;;;8.70;99.90;;;;;;5030052;28;20203;-87
2021/12/16 15:04:07;;;;;;;30.65;13.50;;;8.60;99.90;;;;;;5030224;28;20272;-88
2021/12/16 15:06:44;;;;;;;20.17;14.10;;;8.60;99.90;;;;;;5045695;28;20273;-88
2021/12/16 15:09:27;;;;;;;21.73;15.20;;;8.50;99.90;;;;;;5046679;28;20241;-88
2021/12/16 15:12:06;;;;;;;15.80;13.40;;;8.50;99.90;;;;;;5046678;28;20233;-88
2021/12/16 15:17:22;;;;;;;31.83;20.85;;;8.40;99.90;;;;;;5047774;28;20201;-89
2021/12/16 15:32:01;;;;;;;37.85;21.05;;;8.40;99.90;;;;;;5033078;28;20248;-88
2021/12/16 15:45:00;;;;;;;36.67;22.30;;;8.30;99.90;;;;;;5045322;28;20551;-89
2021/12/16 15:47:28;;;;;;;34.50;17.55;;;8.20;99.90;;;;;;5045969;28;20288;-87
2021/12/16 15:49:54;;;;;;;23.35;16.80;;;8.20;99.90;;;;;;5045806;28;20201;-87
2021/12/16 15:52:42;;;;;;;28.58;16.00;;;8.30;99.90;;;;;;5045176;28;20671;-88
2021/12/16 15:55:20;;;;;;;27.17;14.43;;;8.30;99.90;;;;;;5045750;28;20181;-87
2021/12/16 15:57:46;;;;;;;19.98;12.75;;;8.30;99.90;;;;;;5028135;28;20557;-86
2021/12/16 16:00:18;;;;;;;20.52;14.52;;;8.30;99.90;;;;;;5045527;28;20207;-87
2021/12/16 16:02:48;;;;;;;29.08;18.30;;;8.30;99.90;;;;;;5044351;28;20221;-87
2021/12/16 16:05:14;;;;;;;26.10;17.67;;;8.20;99.90;;;;;;5024063;28;20218;-87
2021/12/16 16:07:42;;;;;;;39.80;27.88;;;8.20;99.90;;;;;;5023723;28;20197;-89
2021/12/16 16:10:11;;;;;;;34.45;20.55;;;8.20;99.90;;;;;;5026168;28;20210;-87
2021/12/16 16:12:39;;;;;;;25.02;17.60;;;8.20;99.90;;;;;;5024127;28;20554;-88
2021/12/16 16:15:16;;;;;;;29.13;22.55;;;8.20;99.90;;;;;;5005360;28;20202;-88
2021/12/16 16:18:12;;;;;;;24.98;18.65;;;8.20;99.90;;;;;;5022619;28;20186;-87
2021/12/16 16:20:45;;;;;;;31.40;21.55;;;8.20;99.90;;;;;;5022645;28;20206;-87
2021/12/16 16:23:15;;;;;;;28.45;17.52;;;8.20;99.90;;;;;;5022213;28;20213;-87
2021/12/16 16:25:44;;;;;;;21.92;15.60;;;8.10;99.90;;;;;;5037862;28;20201;-88
2021/12/16 16:28:12;;;;;;;22.92;14.73;;;8.10;99.90;;;;;;5021350;28;20226;-88
2021/12/16 16:30:39;;;;;;;18.98;13.35;;;8.10;99.90;;;;;;5002369;28;20309;-87
2021/12/16 16:33:18;;;;;;;21.08;13.98;;;8.10;99.90;;;;;;5021042;28;20217;-86
2021/12/16 16:36:00;;;;;;;37.72;14.43;;;8.10;99.90;;;;;;5027767;28;20186;-89
2021/12/16 16:38:49;;;;;;;28.00;16.20;;;8.20;99.90;;;;;;5028693;28;20340;-88
2021/12/16 16:41:19;;;;;;;21.30;14.60;;;8.10;99.90;;;;;;5028227;28;20181;-88
2021/12/16 16:43:59;;;;;;;20.60;15.25;;;8.10;99.90;;;;;;5026992;28;20210;-88
2021/12/16 16:46:40;;;;;;;21.10;15.07;;;8.10;99.90;;;;;;5027057;28;20712;-89